This is the latest recevied weather packets stored in our database for station/object K8CWG. If no packets are shown the sender has not sent any weather packets the latest 1 day(s).
| Time | Temp. | Humidity | Pressure | Rain* | Wind** | Luminosity | Snow |
|---|---|---|---|---|---|---|---|
| 1778046300 | 12.78° C | 94% | 1004.6 hPa | 3.3 mm | 0.89 m/s, 39° | - | - |
| 1778044501 | 14.44° C | 98% | 1004.6 hPa | 1.78 mm | 0.45 m/s, 264° | - | - |
| 1778043603 | 14.44° C | 97% | 1004.3 hPa | 1.27 mm | 0 m/s | - | - |
| 1778040005 | 14.44° C | 97% | 1004.4 hPa | 0.25 mm | 0 m/s | - | - |
| 1778036404 | 14.44° C | 97% | 1004.9 hPa | 0.51 mm | 0 m/s | - | - |
| 1778035502 | 14.44° C | 97% | 1005.5 hPa | 0.76 mm | 0 m/s | - | - |
| 1778034602 | 14.44° C | 97% | 1005.6 hPa | 1.52 mm | 0 m/s | - | - |
| 1778033702 | 14.44° C | 97% | 1005.4 hPa | 2.54 mm | 0 m/s | - | - |
| 1778032803 | 14.44° C | 97% | 1005.6 hPa | 3.05 mm | 0 m/s | - | - |
| 1778029203 | 15° C | 96% | 1004.8 hPa | 0.51 mm | 0 m/s | - | - |
| 1778025603 | 15.56° C | 96% | 1004.8 hPa | 0.25 mm | 0 m/s | - | - |
| 1778022003 | 15.56° C | 96% | 1005.1 hPa | 0 mm | 0.45 m/s, 176° | - | - |
| 1778018404 | 15.56° C | 96% | 1006.2 hPa | 1.02 mm | 0.45 m/s, 228° | - | - |
| 1778014802 | 15.56° C | 95% | 1006.3 hPa | 10.16 mm | 0.89 m/s, 261° | - | - |
| 1778011205 | 20° C | 72% | 1005.8 hPa | 0 mm | 1.79 m/s, 264° | - | - |
| 1778007606 | 20.56° C | 70% | 1006.2 hPa | 0 mm | 1.79 m/s, 220° | - | - |
| 1778004003 | 20° C | 69% | 1006.9 hPa | 0 mm | 0.89 m/s, 121° | - | - |
| 1778000403 | 19.44° C | 68% | 1007.3 hPa | 0 mm | 1.34 m/s, 94° | - | - |
| 1777996803 | 19.44° C | 68% | 1007.3 hPa | 0 mm | 1.34 m/s, 124° | - | - |
| 1777993202 | 20° C | 69% | 1007.1 hPa | 0 mm | 1.79 m/s, 148° | - | - |
| 1777989602 | 17.22° C | 78% | 1006.4 hPa | 0 mm | 1.79 m/s, 231° | - | - |
| 1777986002 | 15.56° C | 88% | 1006.8 hPa | 0 mm | 0.89 m/s, 256° | - | - |
| 1777982402 | 13.89° C | 94% | 1007.2 hPa | 0.25 mm | 0.45 m/s, 239° | - | - |
| 1777978802 | 14.44° C | 91% | 1006.8 hPa | 0.25 mm | 0 m/s | - | - |
| 1777975203 | 17.22° C | 70% | 1006.7 hPa | 0 mm | 0.45 m/s, 308° | - | - |
* Rain latest hour (hover to see other rain measurements)
** Current wind speed in m/s (hover to see current wind gust speed)